createdAt,value
2019-04-10T00:01:21.013Z,66.50
2019-04-10T00:03:51.411Z,66.50
2019-04-10T00:06:21.758Z,66.50
2019-04-10T00:08:52.831Z,66.40
2019-04-10T00:11:23.264Z,66.50
2019-04-10T00:13:53.680Z,66.50
2019-04-10T00:16:24.451Z,66.50
2019-04-10T00:18:54.785Z,66.60
2019-04-10T00:21:25.211Z,66.60
2019-04-10T00:23:55.681Z,66.30
2019-04-10T00:26:25.843Z,65.90
2019-04-10T00:28:56.105Z,65.70
2019-04-10T00:31:26.661Z,65.40
2019-04-10T00:33:57.048Z,65.10
2019-04-10T00:36:27.460Z,64.70
2019-04-10T00:38:58.025Z,64.50
2019-04-10T00:41:28.274Z,64.10
2019-04-10T00:43:59.363Z,63.80
2019-04-10T00:46:30.431Z,63.70
2019-04-10T00:49:01.021Z,63.50
2019-04-10T00:51:31.382Z,63.30
2019-04-10T00:54:01.734Z,63.20
2019-04-10T00:56:32.601Z,63.00
2019-04-10T00:59:03.729Z,62.60
2019-04-10T01:01:34.178Z,62.40
2019-04-10T01:04:04.577Z,62.20
2019-04-10T01:06:35.693Z,61.80
2019-04-10T01:09:08.988Z,61.60
2019-04-10T01:11:39.285Z,61.50
2019-04-10T01:14:09.609Z,61.40
2019-04-10T01:16:40.301Z,61.10
2019-04-10T01:19:10.504Z,61.00
2019-04-10T01:21:41.001Z,60.50
2019-04-10T01:24:11.534Z,60.30
2019-04-10T01:26:41.808Z,59.70
2019-04-10T01:29:12.116Z,60.00
2019-04-10T01:31:43.524Z,60.00
2019-04-10T01:34:14.602Z,59.80
2019-04-10T01:36:45.932Z,59.00
2019-04-10T01:39:18.136Z,59.30
2019-04-10T01:41:48.567Z,59.20
2019-04-10T01:44:18.799Z,59.00
2019-04-10T01:46:49.220Z,58.60
2019-04-10T01:49:19.833Z,58.10
2019-04-10T01:51:51.861Z,58.30
2019-04-10T01:54:22.806Z,57.90
2019-04-10T01:56:54.145Z,57.80
2019-04-10T01:59:26.863Z,57.80
2019-04-10T02:01:58.911Z,57.70
2019-04-10T02:04:30.983Z,57.40
2019-04-10T02:07:02.151Z,57.10
2019-04-10T02:09:32.817Z,57.10
2019-04-10T02:12:04.008Z,57.00
2019-04-10T02:14:34.472Z,56.40
2019-04-10T02:17:04.804Z,56.00
2019-04-10T02:19:35.112Z,56.20
2019-04-10T02:22:06.477Z,56.00
2019-04-10T02:24:36.907Z,55.20
2019-04-10T02:27:07.869Z,55.70
2019-04-10T02:29:39.884Z,55.20
2019-04-10T02:32:10.312Z,55.30
2019-04-10T02:34:41.514Z,55.00
2019-04-10T02:37:12.895Z,55.00
2019-04-10T02:39:47.704Z,54.70
2019-04-10T02:42:16.064Z,54.40
2019-04-10T02:44:48.089Z,53.00
2019-04-10T02:47:19.229Z,52.90
2019-04-10T02:49:50.018Z,53.40
2019-04-10T02:52:22.439Z,53.00
2019-04-10T02:54:53.738Z,52.60
2019-04-10T02:57:25.293Z,53.00
2019-04-10T02:59:57.470Z,52.50
2019-04-10T03:02:29.021Z,52.50
2019-04-10T03:05:00.845Z,52.30
2019-04-10T03:07:33.678Z,52.00
2019-04-10T03:10:15.319Z,52.10
2019-04-10T03:12:36.401Z,51.50
2019-04-10T03:15:10.039Z,50.20
2019-04-10T03:17:41.971Z,50.80
2019-04-10T03:20:12.587Z,48.90
2019-04-10T03:22:43.031Z,50.50
2019-04-10T03:25:13.522Z,50.40
2019-04-10T03:27:44.739Z,50.40
2019-04-10T03:30:15.610Z,50.20
2019-04-10T03:32:51.700Z,49.90
2019-04-10T03:35:20.702Z,49.60
2019-04-10T03:37:51.057Z,49.20
2019-04-10T03:40:21.655Z,48.80
2019-04-10T03:42:52.951Z,47.20
2019-04-10T03:45:26.486Z,47.40
2019-04-10T03:47:57.859Z,47.90
2019-04-10T03:50:28.158Z,47.80
2019-04-10T03:52:58.531Z,47.50
2019-04-10T03:55:29.243Z,47.60
2019-04-10T03:57:59.559Z,47.90
2019-04-10T04:00:30.055Z,47.60
2019-04-10T04:03:00.373Z,47.30
2019-04-10T04:05:30.870Z,47.40
2019-04-10T04:08:01.374Z,47.30
2019-04-10T04:10:32.705Z,46.90
2019-04-10T04:13:04.958Z,46.70
2019-04-10T04:15:35.809Z,46.70
2019-04-10T04:18:06.311Z,46.50
2019-04-10T04:23:07.681Z,45.60
2019-04-10T04:25:38.652Z,45.80
2019-04-10T04:28:09.446Z,45.90
2019-04-10T04:30:40.427Z,45.30
2019-04-10T04:33:10.893Z,45.80
2019-04-10T04:35:41.325Z,45.60
2019-04-10T04:38:11.949Z,44.50
2019-04-10T04:40:42.231Z,44.30
2019-04-10T04:43:12.552Z,43.90
2019-04-10T04:45:42.761Z,44.20
2019-04-10T04:48:13.309Z,44.30
2019-04-10T04:50:43.691Z,43.40
2019-04-10T04:53:14.268Z,44.50
2019-04-10T04:55:44.987Z,44.20
2019-04-10T04:58:15.573Z,42.30
2019-04-10T05:00:45.915Z,43.80
2019-04-10T05:03:16.326Z,43.70
2019-04-10T05:05:47.751Z,43.50
2019-04-10T05:08:18.681Z,43.80
2019-04-10T05:12:31.755Z,43.50
2019-04-10T05:15:06.682Z,43.20
2019-04-10T05:17:37.177Z,43.10
2019-04-10T05:20:09.140Z,43.80
2019-04-10T05:22:39.678Z,43.40
2019-04-10T05:25:11.136Z,43.20
2019-04-10T05:27:41.759Z,43.20
2019-04-10T05:30:13.743Z,42.80
2019-04-10T05:32:43.923Z,42.60
2019-04-10T05:35:15.112Z,43.10
2019-04-10T05:37:46.195Z,43.10
2019-04-10T05:40:17.460Z,43.20
2019-04-10T05:42:47.841Z,43.10
2019-04-10T05:45:18.382Z,43.10
2019-04-10T05:47:48.639Z,43.00
2019-04-10T05:50:19.410Z,42.90
2019-04-10T05:52:53.853Z,42.80
2019-04-10T05:55:24.614Z,42.70
2019-04-10T05:57:55.279Z,42.00
2019-04-10T06:00:26.967Z,42.40
2019-04-10T06:02:58.386Z,42.30
2019-04-10T06:05:29.833Z,42.30
2019-04-10T06:08:01.287Z,42.00
2019-04-10T06:10:32.233Z,41.70
2019-04-10T06:13:02.634Z,41.80
2019-04-10T06:15:32.999Z,41.80
2019-04-10T06:18:03.303Z,41.80
2019-04-10T06:20:33.716Z,40.80
2019-04-10T06:23:08.080Z,41.00
2019-04-10T06:25:41.396Z,41.20
2019-04-10T06:28:10.634Z,40.90
2019-04-10T06:30:41.821Z,40.00
2019-04-10T06:33:12.242Z,40.20
2019-04-10T06:35:42.681Z,40.80
2019-04-10T06:38:13.126Z,39.80
2019-04-10T06:40:44.018Z,39.90
2019-04-10T06:43:14.994Z,39.70
2019-04-10T06:45:46.090Z,39.70
2019-04-10T06:48:20.475Z,39.10
2019-04-10T06:50:51.368Z,39.70
2019-04-10T06:53:22.652Z,40.30
2019-04-10T06:57:30.518Z,40.30
2019-04-10T07:00:00.869Z,40.10
2019-04-10T07:02:33.820Z,40.50
2019-04-10T07:05:06.285Z,39.50
2019-04-10T07:07:47.547Z,40.30
2019-04-10T07:10:20.546Z,40.70
2019-04-10T07:12:44.013Z,41.00
2019-04-10T07:15:18.722Z,41.20
2019-04-10T07:17:47.130Z,41.10
2019-04-10T07:20:20.635Z,41.20
2019-04-10T07:22:51.292Z,41.40
2019-04-10T07:25:21.795Z,41.40
2019-04-10T07:27:52.330Z,41.20
2019-04-10T07:30:26.101Z,39.50
2019-04-10T07:32:55.114Z,40.10
2019-04-10T07:35:25.759Z,39.50
2019-04-10T07:37:56.962Z,39.10
2019-04-10T07:40:38.732Z,38.70
2019-04-10T07:43:11.078Z,38.30
2019-04-10T07:45:41.477Z,38.40
2019-04-10T07:48:13.062Z,38.60
2019-04-10T07:50:45.342Z,38.40
2019-04-10T07:53:16.822Z,38.30
2019-04-10T07:56:00.349Z,38.90
2019-04-10T07:58:21.469Z,38.20
2019-04-10T08:00:54.445Z,38.00
2019-04-10T08:03:25.139Z,38.00
2019-04-10T08:05:55.554Z,38.00
2019-04-10T08:08:25.863Z,38.10
2019-04-10T08:10:57.312Z,37.50
2019-04-10T08:13:28.769Z,37.80
2019-04-10T08:15:59.078Z,36.60
2019-04-10T08:18:29.629Z,37.40
2019-04-10T08:20:59.989Z,37.40
2019-04-10T08:23:30.534Z,37.20
2019-04-10T08:26:00.773Z,37.10
2019-04-10T08:28:31.137Z,36.80
2019-04-10T08:31:01.369Z,36.80
2019-04-10T08:33:32.226Z,36.10
2019-04-10T08:36:03.252Z,36.60
2019-04-10T08:38:34.488Z,36.20
2019-04-10T08:41:05.124Z,36.10
2019-04-10T08:43:35.498Z,36.50
2019-04-10T08:46:05.900Z,35.80
2019-04-10T08:48:36.279Z,36.00
2019-04-10T08:51:06.755Z,36.00
2019-04-10T08:53:38.184Z,34.90
2019-04-10T08:56:08.604Z,35.90
2019-04-10T08:58:39.143Z,35.90
2019-04-10T09:01:09.687Z,36.10
2019-04-10T09:03:41.222Z,35.70
2019-04-10T09:06:11.802Z,36.00
2019-04-10T09:08:43.265Z,36.00
2019-04-10T09:11:14.703Z,35.70
2019-04-10T09:13:46.442Z,35.60
2019-04-10T09:16:17.011Z,35.60
2019-04-10T09:18:47.657Z,35.00
2019-04-10T09:21:19.393Z,35.40
2019-04-10T09:23:52.883Z,35.80
2019-04-10T09:26:22.431Z,36.10
2019-04-10T09:28:52.949Z,36.00
2019-04-10T09:31:23.901Z,36.20
2019-04-10T09:33:54.405Z,35.80
2019-04-10T09:36:24.945Z,36.20
2019-04-10T09:38:55.444Z,35.90
2019-04-10T09:41:25.961Z,34.80
2019-04-10T09:43:56.341Z,35.90
2019-04-10T09:46:26.911Z,34.80
2019-04-10T09:48:58.328Z,34.70
2019-04-10T09:51:29.655Z,35.80
2019-04-10T09:53:59.864Z,35.40
2019-04-10T09:56:30.238Z,35.50
2019-04-10T10:03:42.132Z,35.60
2019-04-10T10:06:23.269Z,35.40
2019-04-10T10:08:46.357Z,35.70
2019-04-10T10:11:18.045Z,35.60
2019-04-10T10:13:48.857Z,35.70
2019-04-10T10:16:19.330Z,35.70
2019-04-10T10:18:49.848Z,35.70
2019-04-10T10:21:20.724Z,35.80
2019-04-10T10:23:51.923Z,35.70
2019-04-10T10:26:22.512Z,35.80
2019-04-10T10:28:52.952Z,35.80
2019-04-10T10:31:24.143Z,36.00
2019-04-10T10:33:55.149Z,36.20
2019-04-10T10:36:34.705Z,36.30
2019-04-10T10:39:06.827Z,36.50
2019-04-10T10:41:29.861Z,36.60
2019-04-10T10:44:00.588Z,36.60
2019-04-10T10:46:31.479Z,36.60
2019-04-10T10:49:02.273Z,36.80
2019-04-10T10:51:33.030Z,36.90
2019-04-10T10:54:04.503Z,36.90
2019-04-10T10:56:36.189Z,37.00
2019-04-10T10:59:07.132Z,37.10
2019-04-10T11:01:38.032Z,37.20
2019-04-10T11:04:08.877Z,37.20
2019-04-10T11:06:51.545Z,37.50
2019-04-10T11:09:12.728Z,37.60
2019-04-10T11:11:43.009Z,37.70
2019-04-10T11:14:13.603Z,37.90
2019-04-10T11:16:45.394Z,38.10
2019-04-10T11:19:15.718Z,38.30
2019-04-10T11:21:46.995Z,38.50
2019-04-10T11:24:17.752Z,38.70
2019-04-10T11:26:50.189Z,39.00
2019-04-10T11:29:21.871Z,39.40
2019-04-10T11:31:53.610Z,39.70
2019-04-10T11:34:24.303Z,40.00
2019-04-10T11:37:12.942Z,40.30
2019-04-10T11:39:28.646Z,40.50
2019-04-10T11:41:58.847Z,40.90
2019-04-10T11:44:29.781Z,41.10
2019-04-10T11:47:00.011Z,41.40
2019-04-10T11:49:31.547Z,41.60
2019-04-10T11:52:03.978Z,41.90
2019-04-10T11:54:37.190Z,42.20
2019-04-10T11:57:07.484Z,42.50
2019-04-10T11:59:38.993Z,42.80
2019-04-10T12:02:10.232Z,43.10
2019-04-10T12:04:49.202Z,43.40
2019-04-10T12:07:49.127Z,43.60
2019-04-10T12:12:16.132Z,44.00
2019-04-10T12:14:46.338Z,44.20
2019-04-10T12:17:16.686Z,44.30
2019-04-10T12:19:47.333Z,44.40
2019-04-10T12:22:17.667Z,44.60
2019-04-10T12:24:49.866Z,44.70
2019-04-10T12:27:20.862Z,44.80
2019-04-10T12:29:51.318Z,45.00
2019-04-10T12:32:21.597Z,45.10
2019-04-10T12:34:52.783Z,45.30
2019-04-10T12:37:23.608Z,45.40
2019-04-10T12:39:53.705Z,45.60
2019-04-10T12:42:24.077Z,45.80
2019-04-10T12:44:55.521Z,45.90
2019-04-10T12:47:25.935Z,46.70
2019-04-10T12:49:56.925Z,46.40
2019-04-10T12:52:27.786Z,46.70
2019-04-10T12:54:58.073Z,46.90
2019-04-10T12:57:28.651Z,47.00
2019-04-10T13:00:01.579Z,47.00
2019-04-10T13:02:30.511Z,47.00
2019-04-10T13:05:01.305Z,47.20
2019-04-10T13:07:31.705Z,47.30
2019-04-10T13:10:02.547Z,47.50
2019-04-10T13:15:01.252Z,47.80
2019-04-10T13:17:31.669Z,48.20
2019-04-10T13:20:02.025Z,48.40
2019-04-10T13:22:32.321Z,48.50
2019-04-10T13:25:02.866Z,48.60
2019-04-10T13:27:33.355Z,48.60
2019-04-10T13:30:04.815Z,48.70
2019-04-10T13:32:36.005Z,48.90
2019-04-10T13:35:08.511Z,48.90
2019-04-10T13:37:38.916Z,49.00
2019-04-10T13:40:11.135Z,49.00
2019-04-10T13:42:41.591Z,49.10
2019-04-10T13:45:13.128Z,49.30
2019-04-10T13:47:43.546Z,49.30
2019-04-10T13:50:14.653Z,49.60
2019-04-10T13:52:46.599Z,49.70
2019-04-10T13:55:17.136Z,49.70
2019-04-10T13:57:47.304Z,49.90
2019-04-10T14:00:19.655Z,49.90
2019-04-10T14:02:50.267Z,50.00
2019-04-10T14:05:21.979Z,50.00
2019-04-10T14:07:53.328Z,50.10
2019-04-10T14:10:25.005Z,50.10
2019-04-10T14:12:56.384Z,50.20
2019-04-10T14:15:30.190Z,50.10
2019-04-10T14:18:00.093Z,50.00
2019-04-10T14:20:31.222Z,49.90
2019-04-10T14:23:04.143Z,49.80
2019-04-10T14:25:36.063Z,49.60
2019-04-10T14:28:06.984Z,49.50
2019-04-10T14:30:39.664Z,49.40
2019-04-10T14:33:10.576Z,49.30
2019-04-10T14:35:41.112Z,49.20
2019-04-10T14:38:12.025Z,49.60
2019-04-10T14:40:42.561Z,49.10
2019-04-10T14:45:04.148Z,49.10
2019-04-10T14:47:35.866Z,49.10
2019-04-10T14:50:07.655Z,49.00
2019-04-10T14:52:38.069Z,49.00
2019-04-10T14:55:08.663Z,48.90
2019-04-10T14:57:39.431Z,48.90
2019-04-10T15:00:12.721Z,48.90
2019-04-10T15:02:43.201Z,48.90
2019-04-10T15:05:13.583Z,48.90
2019-04-10T15:07:44.801Z,49.00
2019-04-10T15:10:15.803Z,49.00
2019-04-10T15:12:46.139Z,49.10
2019-04-10T15:15:17.658Z,49.10
2019-04-10T15:17:48.721Z,49.20
2019-04-10T15:20:18.906Z,49.30
2019-04-10T15:22:49.785Z,49.40
2019-04-10T15:25:20.523Z,49.50
2019-04-10T15:27:51.683Z,49.60
2019-04-10T15:30:22.309Z,49.70
2019-04-10T15:32:53.900Z,49.90
2019-04-10T15:35:24.382Z,50.00
2019-04-10T15:37:55.677Z,50.20
2019-04-10T15:40:27.659Z,50.30
2019-04-10T15:42:58.725Z,50.60
2019-04-10T15:45:30.099Z,50.70
2019-04-10T15:48:01.592Z,51.00
2019-04-10T15:50:32.613Z,51.10
2019-04-10T15:53:04.001Z,51.40
2019-04-10T15:55:34.518Z,51.50
2019-04-10T15:58:05.098Z,51.70
2019-04-10T16:00:35.444Z,51.90
2019-04-10T16:03:06.022Z,52.10
2019-04-10T16:05:36.286Z,52.60
2019-04-10T16:08:07.842Z,52.50
2019-04-10T16:10:39.837Z,52.70
2019-04-10T16:13:12.972Z,52.90
2019-04-10T16:15:45.006Z,53.10
2019-04-10T16:18:16.511Z,53.30
2019-04-10T16:20:48.360Z,53.30
2019-04-10T16:23:19.862Z,53.40
2019-04-10T16:25:52.365Z,53.50
2019-04-10T16:28:22.951Z,53.70
2019-04-10T16:30:53.234Z,53.90
2019-04-10T16:33:25.327Z,53.90
2019-04-10T16:35:56.816Z,54.10
2019-04-10T16:38:27.344Z,54.10
2019-04-10T16:40:58.390Z,54.30
2019-04-10T16:43:28.841Z,54.40
2019-04-10T16:45:59.438Z,54.60
2019-04-10T16:48:29.853Z,54.70
2019-04-10T16:51:00.190Z,54.80
2019-04-10T16:53:31.254Z,54.40
2019-04-10T16:56:01.493Z,54.90
2019-04-10T16:58:31.907Z,54.90
2019-04-10T17:01:02.778Z,55.00
2019-04-10T17:03:33.837Z,55.00
2019-04-10T17:06:04.111Z,55.10
2019-04-10T17:08:34.655Z,55.20
2019-04-10T17:11:07.044Z,55.40
2019-04-10T17:13:38.383Z,55.30
2019-04-10T17:16:09.293Z,55.40
2019-04-10T17:18:39.494Z,55.50
2019-04-10T17:21:09.592Z,55.70
2019-04-10T17:23:40.706Z,55.80
2019-04-10T17:26:12.825Z,55.80
2019-04-10T17:28:43.361Z,55.90
2019-04-10T17:31:14.237Z,55.90
2019-04-10T17:33:45.818Z,56.10
2019-04-10T17:36:16.888Z,56.10
2019-04-10T17:38:47.254Z,56.10
2019-04-10T17:41:17.682Z,56.10
2019-04-10T17:43:49.459Z,56.00
2019-04-10T17:46:19.913Z,56.10
2019-04-10T17:48:50.173Z,56.10
2019-04-10T17:51:21.989Z,56.20
2019-04-10T17:53:53.634Z,56.20
2019-04-10T17:56:24.253Z,56.20
2019-04-10T17:58:54.726Z,56.30
2019-04-10T18:01:27.155Z,56.20
2019-04-10T18:04:01.342Z,56.30
2019-04-10T18:06:29.797Z,56.40
2019-04-10T18:09:01.157Z,56.30
2019-04-10T18:11:32.137Z,56.40
2019-04-10T18:15:42.058Z,56.30
2019-04-10T18:18:13.565Z,56.30
2019-04-10T18:20:44.424Z,56.40
2019-04-10T18:23:15.500Z,56.30
2019-04-10T18:25:46.458Z,56.40
2019-04-10T18:28:17.177Z,56.70
2019-04-10T18:30:48.179Z,56.90
2019-04-10T18:33:18.796Z,57.20
2019-04-10T18:35:49.087Z,57.20
2019-04-10T18:38:19.527Z,57.30
2019-04-10T18:40:58.293Z,57.30
2019-04-10T18:43:22.293Z,57.20
2019-04-10T18:46:02.908Z,57.40
2019-04-10T18:48:24.966Z,57.50
2019-04-10T18:50:55.114Z,57.40
2019-04-10T18:53:26.770Z,57.30
2019-04-10T18:55:57.119Z,57.10
2019-04-10T18:58:29.634Z,57.00
2019-04-10T19:01:01.316Z,57.10
2019-04-10T19:03:44.164Z,56.80
2019-04-10T19:06:07.867Z,56.80
2019-04-10T19:08:39.807Z,56.70
2019-04-10T19:11:19.134Z,56.70
2019-04-10T19:13:42.457Z,56.70
2019-04-10T19:16:12.987Z,56.80
2019-04-10T19:18:43.812Z,56.80
2019-04-10T19:21:15.542Z,56.80
2019-04-10T19:23:45.846Z,56.80
2019-04-10T19:26:17.476Z,56.80
2019-04-10T19:28:48.790Z,56.80
2019-04-10T19:31:23.835Z,56.90
2019-04-10T19:33:52.174Z,57.30
2019-04-10T19:36:23.676Z,57.00
2019-04-10T19:38:53.996Z,56.90
2019-04-10T19:41:30.776Z,57.00
2019-04-10T19:43:56.951Z,57.00
2019-04-10T19:46:29.171Z,57.10
2019-04-10T19:48:59.695Z,57.30
2019-04-10T19:51:30.191Z,57.20
2019-04-10T19:56:00.868Z,57.40
2019-04-10T19:58:32.186Z,57.60
2019-04-10T20:01:03.248Z,57.60
2019-04-10T20:03:33.727Z,57.80
2019-04-10T20:06:04.264Z,57.80
2019-04-10T20:08:35.517Z,57.90
2019-04-10T20:11:06.716Z,57.80
2019-04-10T20:13:37.319Z,57.80
2019-04-10T20:16:07.510Z,57.70
2019-04-10T20:18:37.722Z,57.60
2019-04-10T20:21:08.159Z,57.60
2019-04-10T20:23:38.492Z,57.40
2019-04-10T20:26:08.799Z,57.30
2019-04-10T20:28:39.137Z,57.10
2019-04-10T20:31:10.728Z,57.00
2019-04-10T20:33:41.380Z,56.90
2019-04-10T20:36:12.948Z,56.90
2019-04-10T20:38:43.373Z,56.80
2019-04-10T20:41:14.128Z,56.70
2019-04-10T20:43:44.852Z,56.60
2019-04-10T20:46:15.284Z,56.60
2019-04-10T20:48:46.695Z,56.80
2019-04-10T20:51:18.569Z,56.60
2019-04-10T20:53:50.518Z,56.60
2019-04-10T20:56:20.920Z,56.60
2019-04-10T20:58:52.677Z,56.60
2019-04-10T21:01:24.518Z,56.70
2019-04-10T21:03:54.855Z,56.70
2019-04-10T21:06:25.497Z,56.70
2019-04-10T21:08:55.845Z,56.80
2019-04-10T21:11:26.192Z,56.90
2019-04-10T21:13:56.608Z,56.80
2019-04-10T21:16:27.365Z,56.90
2019-04-10T21:18:57.777Z,57.00
2019-04-10T21:21:28.106Z,57.10
2019-04-10T21:23:58.295Z,57.10
2019-04-10T21:26:28.721Z,57.10
2019-04-10T21:28:58.853Z,57.00
2019-04-10T21:31:31.704Z,57.00
2019-04-10T21:34:03.470Z,57.10
2019-04-10T21:36:34.999Z,57.00
2019-04-10T21:39:07.364Z,57.10
2019-04-10T21:41:38.804Z,57.10
2019-04-10T21:44:10.224Z,57.20
2019-04-10T21:46:41.149Z,57.20
2019-04-10T21:49:11.516Z,57.30
2019-04-10T21:51:42.770Z,57.30
2019-04-10T21:54:14.117Z,57.30
2019-04-10T21:56:45.072Z,57.40
2019-04-10T21:59:16.441Z,57.40
2019-04-10T22:01:48.752Z,57.50
2019-04-10T22:04:19.239Z,57.60
2019-04-10T22:06:51.473Z,57.60
2019-04-10T22:09:23.239Z,57.60
2019-04-10T22:11:55.293Z,57.60
2019-04-10T22:14:26.132Z,57.70
2019-04-10T22:16:56.582Z,57.70
2019-04-10T22:19:26.895Z,57.80
2019-04-10T22:21:57.882Z,57.90
2019-04-10T22:24:29.758Z,58.00
2019-04-10T22:27:00.881Z,58.00
2019-04-10T22:29:31.354Z,58.10
2019-04-10T22:32:02.011Z,58.30
2019-04-10T22:34:32.532Z,58.40
2019-04-10T22:37:04.176Z,58.50
2019-04-10T22:39:35.782Z,58.80
2019-04-10T22:42:07.420Z,58.90
2019-04-10T22:46:28.236Z,59.00
2019-04-10T22:48:58.545Z,59.40
2019-04-10T22:51:29.168Z,59.60
2019-04-10T22:53:59.398Z,59.90
2019-04-10T22:56:30.039Z,60.30
2019-04-10T22:59:01.643Z,60.50
2019-04-10T23:01:32.024Z,60.70
2019-04-10T23:04:03.753Z,61.00
2019-04-10T23:06:35.361Z,60.70
2019-04-10T23:09:08.358Z,61.30
2019-04-10T23:11:42.268Z,61.30
2019-04-10T23:14:10.928Z,61.20
2019-04-10T23:16:41.243Z,61.10
2019-04-10T23:19:11.989Z,61.20
2019-04-10T23:21:42.901Z,61.20
2019-04-10T23:24:13.662Z,61.10
2019-04-10T23:26:44.957Z,61.10
2019-04-10T23:29:15.845Z,61.10
2019-04-10T23:31:46.157Z,61.10
2019-04-10T23:34:16.671Z,61.10
2019-04-10T23:36:47.048Z,61.30
2019-04-10T23:39:17.334Z,61.30
2019-04-10T23:41:49.396Z,61.30
2019-04-10T23:44:20.617Z,61.50
2019-04-10T23:46:51.705Z,61.40
2019-04-10T23:49:22.181Z,61.40
2019-04-10T23:51:53.608Z,61.50
2019-04-10T23:54:24.922Z,61.50
2019-04-10T23:56:55.258Z,61.60
2019-04-10T23:59:26.616Z,61.60
